sensor_id;sensor_type;location;lat;lon;timestamp;temperature;humidity
78289;DHT22;67539;48.752;12.922;2023-04-01T00:00:59;8.60;99.90
78289;DHT22;67539;48.752;12.922;2023-04-01T00:03:29;8.60;99.90
78289;DHT22;67539;48.752;12.922;2023-04-01T00:05:58;8.60;99.90
78289;DHT22;67539;48.752;12.922;2023-04-01T00:08:27;8.60;99.90
78289;DHT22;67539;48.752;12.922;2023-04-01T00:10:55;8.60;99.90
78289;DHT22;67539;48.752;12.922;2023-04-01T00:13:25;8.60;99.90
78289;DHT22;67539;48.752;12.922;2023-04-01T00:15:53;8.60;99.70
78289;DHT22;67539;48.752;12.922;2023-04-01T00:18:23;8.50;99.80
78289;DHT22;67539;48.752;12.922;2023-04-01T00:20:53;8.50;99.50
78289;DHT22;67539;48.752;12.922;2023-04-01T00:23:22;8.60;99.20
78289;DHT22;67539;48.752;12.922;2023-04-01T00:25:50;8.60;99.40
78289;DHT22;67539;48.752;12.922;2023-04-01T00:28:19;8.60;99.40
78289;DHT22;67539;48.752;12.922;2023-04-01T00:30:47;8.60;99.30
78289;DHT22;67539;48.752;12.922;2023-04-01T00:33:16;8.50;99.50
78289;DHT22;67539;48.752;12.922;2023-04-01T00:35:44;8.50;99.30
78289;DHT22;67539;48.752;12.922;2023-04-01T00:38:14;8.50;99.50
78289;DHT22;67539;48.752;12.922;2023-04-01T00:40:45;8.50;99.60
78289;DHT22;67539;48.752;12.922;2023-04-01T00:43:15;8.50;99.80
78289;DHT22;67539;48.752;12.922;2023-04-01T00:45:45;8.50;99.70
78289;DHT22;67539;48.752;12.922;2023-04-01T00:48:16;8.50;99.90
78289;DHT22;67539;48.752;12.922;2023-04-01T00:50:47;8.50;99.90
78289;DHT22;67539;48.752;12.922;2023-04-01T00:53:19;8.50;99.90
78289;DHT22;67539;48.752;12.922;2023-04-01T00:55:53;8.50;99.90
78289;DHT22;67539;48.752;12.922;2023-04-01T00:58:24;8.50;99.90
78289;DHT22;67539;48.752;12.922;2023-04-01T01:00:55;8.50;99.90
78289;DHT22;67539;48.752;12.922;2023-04-01T01:03:24;8.50;99.90
78289;DHT22;67539;48.752;12.922;2023-04-01T01:06:16;8.50;99.90
78289;DHT22;67539;48.752;12.922;2023-04-01T01:09:12;8.40;99.90
78289;DHT22;67539;48.752;12.922;2023-04-01T01:11:43;8.40;99.90
78289;DHT22;67539;48.752;12.922;2023-04-01T01:14:28;8.40;99.90
78289;DHT22;67539;48.752;12.922;2023-04-01T01:17:06;8.50;99.90
78289;DHT22;67539;48.752;12.922;2023-04-01T01:20:11;8.40;99.90
78289;DHT22;67539;48.752;12.922;2023-04-01T01:23:09;8.40;99.90
78289;DHT22;67539;48.752;12.922;2023-04-01T01:25:53;8.40;99.90
78289;DHT22;67539;48.752;12.922;2023-04-01T01:28:35;8.40;99.90
78289;DHT22;67539;48.752;12.922;2023-04-01T01:31:14;8.50;99.90
78289;DHT22;67539;48.752;12.922;2023-04-01T01:33:50;8.50;99.90
78289;DHT22;67539;48.752;12.922;2023-04-01T01:36:23;8.50;99.90
78289;DHT22;67539;48.752;12.922;2023-04-01T01:38:55;8.50;99.90
78289;DHT22;67539;48.752;12.922;2023-04-01T01:41:25;8.60;99.90
78289;DHT22;67539;48.752;12.922;2023-04-01T01:43:56;8.50;99.60
78289;DHT22;67539;48.752;12.922;2023-04-01T01:46:28;8.60;99.70
78289;DHT22;67539;48.752;12.922;2023-04-01T01:48:57;8.60;99.80
78289;DHT22;67539;48.752;12.922;2023-04-01T01:51:28;8.60;99.60
78289;DHT22;67539;48.752;12.922;2023-04-01T01:53:57;8.60;99.50
78289;DHT22;67539;48.752;12.922;2023-04-01T01:56:27;8.60;99.60
78289;DHT22;67539;48.752;12.922;2023-04-01T01:58:58;8.60;99.50
78289;DHT22;67539;48.752;12.922;2023-04-01T02:01:30;8.60;99.50
78289;DHT22;67539;48.752;12.922;2023-04-01T02:04:07;8.60;99.60
78289;DHT22;67539;48.752;12.922;2023-04-01T02:06:42;8.60;99.60
78289;DHT22;67539;48.752;12.922;2023-04-01T02:09:13;8.60;99.50
78289;DHT22;67539;48.752;12.922;2023-04-01T02:11:45;8.60;99.40
78289;DHT22;67539;48.752;12.922;2023-04-01T02:14:15;8.60;99.10
78289;DHT22;67539;48.752;12.922;2023-04-01T02:16:53;8.60;99.40
78289;DHT22;67539;48.752;12.922;2023-04-01T02:19:23;8.60;99.10
78289;DHT22;67539;48.752;12.922;2023-04-01T02:21:57;8.60;99.10
78289;DHT22;67539;48.752;12.922;2023-04-01T02:24:30;8.60;99.20
78289;DHT22;67539;48.752;12.922;2023-04-01T02:26:58;8.60;99.10
78289;DHT22;67539;48.752;12.922;2023-04-01T02:29:28;8.60;99.20
78289;DHT22;67539;48.752;12.922;2023-04-01T02:31:57;8.70;99.10
78289;DHT22;67539;48.752;12.922;2023-04-01T02:34:26;8.60;99.10
78289;DHT22;67539;48.752;12.922;2023-04-01T02:36:56;8.60;99.10
78289;DHT22;67539;48.752;12.922;2023-04-01T02:39:26;8.60;99.20
78289;DHT22;67539;48.752;12.922;2023-04-01T02:41:54;8.60;99.30
78289;DHT22;67539;48.752;12.922;2023-04-01T02:44:22;8.60;99.40
78289;DHT22;67539;48.752;12.922;2023-04-01T02:46:50;8.60;99.50
78289;DHT22;67539;48.752;12.922;2023-04-01T02:49:19;8.60;99.30
78289;DHT22;67539;48.752;12.922;2023-04-01T02:51:48;8.60;99.20
78289;DHT22;67539;48.752;12.922;2023-04-01T02:54:17;8.60;99.20
78289;DHT22;67539;48.752;12.922;2023-04-01T02:56:46;8.60;99.30
78289;DHT22;67539;48.752;12.922;2023-04-01T02:59:14;8.60;99.40
78289;DHT22;67539;48.752;12.922;2023-04-01T03:01:42;8.60;99.30
78289;DHT22;67539;48.752;12.922;2023-04-01T03:04:10;8.60;99.50
78289;DHT22;67539;48.752;12.922;2023-04-01T03:06:38;8.60;99.50
78289;DHT22;67539;48.752;12.922;2023-04-01T03:09:07;8.60;99.60
78289;DHT22;67539;48.752;12.922;2023-04-01T03:11:36;8.60;99.60
78289;DHT22;67539;48.752;12.922;2023-04-01T03:14:04;8.60;99.70
78289;DHT22;67539;48.752;12.922;2023-04-01T03:16:33;8.60;99.80
78289;DHT22;67539;48.752;12.922;2023-04-01T03:19:02;8.60;99.60
78289;DHT22;67539;48.752;12.922;2023-04-01T03:21:30;8.60;99.80
78289;DHT22;67539;48.752;12.922;2023-04-01T03:24:00;8.60;99.90
78289;DHT22;67539;48.752;12.922;2023-04-01T03:26:28;8.50;99.90
78289;DHT22;67539;48.752;12.922;2023-04-01T03:28:58;8.50;99.90
78289;DHT22;67539;48.752;12.922;2023-04-01T03:31:26;8.50;99.90
78289;DHT22;67539;48.752;12.922;2023-04-01T03:33:56;8.50;99.90
78289;DHT22;67539;48.752;12.922;2023-04-01T03:36:24;8.50;99.90
78289;DHT22;67539;48.752;12.922;2023-04-01T03:38:52;8.50;99.90
78289;DHT22;67539;48.752;12.922;2023-04-01T03:41:32;8.50;99.90
78289;DHT22;67539;48.752;12.922;2023-04-01T03:44:02;8.50;99.90
78289;DHT22;67539;48.752;12.922;2023-04-01T03:46:30;8.50;99.90
78289;DHT22;67539;48.752;12.922;2023-04-01T03:48:58;8.50;99.90
78289;DHT22;67539;48.752;12.922;2023-04-01T03:51:26;8.50;99.90
78289;DHT22;67539;48.752;12.922;2023-04-01T03:53:54;8.50;99.90
78289;DHT22;67539;48.752;12.922;2023-04-01T03:56:23;8.50;99.90
78289;DHT22;67539;48.752;12.922;2023-04-01T03:58:51;8.50;99.90
78289;DHT22;67539;48.752;12.922;2023-04-01T04:01:22;8.50;99.90
78289;DHT22;67539;48.752;12.922;2023-04-01T04:03:53;8.40;99.90
78289;DHT22;67539;48.752;12.922;2023-04-01T04:06:23;8.40;99.90
78289;DHT22;67539;48.752;12.922;2023-04-01T04:08:52;8.40;99.90
78289;DHT22;67539;48.752;12.922;2023-04-01T04:11:21;8.40;99.90
78289;DHT22;67539;48.752;12.922;2023-04-01T04:13:51;8.40;99.90
78289;DHT22;67539;48.752;12.922;2023-04-01T04:16:22;8.40;99.90
78289;DHT22;67539;48.752;12.922;2023-04-01T04:18:58;8.40;99.60
78289;DHT22;67539;48.752;12.922;2023-04-01T04:21:26;8.40;99.60
78289;DHT22;67539;48.752;12.922;2023-04-01T04:23:54;8.40;99.70
78289;DHT22;67539;48.752;12.922;2023-04-01T04:26:23;8.40;99.80
78289;DHT22;67539;48.752;12.922;2023-04-01T04:28:58;8.40;99.70
78289;DHT22;67539;48.752;12.922;2023-04-01T04:31:28;8.40;99.50
78289;DHT22;67539;48.752;12.922;2023-04-01T04:33:59;8.40;99.60
78289;DHT22;67539;48.752;12.922;2023-04-01T04:36:31;8.40;99.50
78289;DHT22;67539;48.752;12.922;2023-04-01T04:38:59;8.40;99.70
78289;DHT22;67539;48.752;12.922;2023-04-01T04:41:31;8.40;99.60
78289;DHT22;67539;48.752;12.922;2023-04-01T04:44:01;8.40;99.60
78289;DHT22;67539;48.752;12.922;2023-04-01T04:46:31;8.40;99.70
78289;DHT22;67539;48.752;12.922;2023-04-01T04:49:09;8.30;99.80
78289;DHT22;67539;48.752;12.922;2023-04-01T04:51:37;8.30;99.90
78289;DHT22;67539;48.752;12.922;2023-04-01T04:54:06;8.30;99.90
78289;DHT22;67539;48.752;12.922;2023-04-01T04:56:55;8.30;99.90
78289;DHT22;67539;48.752;12.922;2023-04-01T04:59:25;8.30;99.90
78289;DHT22;67539;48.752;12.922;2023-04-01T05:02:03;8.30;99.90
78289;DHT22;67539;48.752;12.922;2023-04-01T05:04:34;8.30;99.90
78289;DHT22;67539;48.752;12.922;2023-04-01T05:07:04;8.30;99.90
78289;DHT22;67539;48.752;12.922;2023-04-01T05:09:33;8.40;99.90
78289;DHT22;67539;48.752;12.922;2023-04-01T05:12:02;8.40;99.90
78289;DHT22;67539;48.752;12.922;2023-04-01T05:14:48;8.30;99.90
78289;DHT22;67539;48.752;12.922;2023-04-01T05:17:17;8.30;99.90
78289;DHT22;67539;48.752;12.922;2023-04-01T05:19:45;8.40;99.90
78289;DHT22;67539;48.752;12.922;2023-04-01T05:22:14;8.30;99.90
78289;DHT22;67539;48.752;12.922;2023-04-01T05:24:43;8.30;99.90
78289;DHT22;67539;48.752;12.922;2023-04-01T05:27:12;8.30;99.90
78289;DHT22;67539;48.752;12.922;2023-04-01T05:29:41;8.30;99.90
78289;DHT22;67539;48.752;12.922;2023-04-01T05:32:26;8.30;99.90
78289;DHT22;67539;48.752;12.922;2023-04-01T05:34:54;8.30;99.90
78289;DHT22;67539;48.752;12.922;2023-04-01T05:37:23;8.30;99.90
78289;DHT22;67539;48.752;12.922;2023-04-01T05:39:51;8.30;99.90
78289;DHT22;67539;48.752;12.922;2023-04-01T05:42:19;8.30;99.90
78289;DHT22;67539;48.752;12.922;2023-04-01T05:44:47;8.30;99.90
78289;DHT22;67539;48.752;12.922;2023-04-01T05:47:35;8.30;99.90
78289;DHT22;67539;48.752;12.922;2023-04-01T05:50:03;8.40;99.90
78289;DHT22;67539;48.752;12.922;2023-04-01T05:52:31;8.40;99.90
78289;DHT22;67539;48.752;12.922;2023-04-01T05:55:00;8.40;99.70
78289;DHT22;67539;48.752;12.922;2023-04-01T05:57:28;8.40;99.60
78289;DHT22;67539;48.752;12.922;2023-04-01T05:59:57;8.40;99.80
78289;DHT22;67539;48.752;12.922;2023-04-01T06:02:26;8.40;99.90
78289;DHT22;67539;48.752;12.922;2023-04-01T06:05:03;8.50;99.70
78289;DHT22;67539;48.752;12.922;2023-04-01T06:07:31;8.50;99.50
78289;DHT22;67539;48.752;12.922;2023-04-01T06:10:00;8.50;99.10
78289;DHT22;67539;48.752;12.922;2023-04-01T06:12:45;8.60;99.50
78289;DHT22;67539;48.752;12.922;2023-04-01T06:15:23;8.60;99.20
78289;DHT22;67539;48.752;12.922;2023-04-01T06:18:10;8.60;99.20
78289;DHT22;67539;48.752;12.922;2023-04-01T06:20:49;8.60;99.10
78289;DHT22;67539;48.752;12.922;2023-04-01T06:23:32;8.60;98.70
78289;DHT22;67539;48.752;12.922;2023-04-01T06:26:10;8.70;98.70
78289;DHT22;67539;48.752;12.922;2023-04-01T06:31:51;8.70;98.60
78289;DHT22;67539;48.752;12.922;2023-04-01T06:34:39;8.70;98.60
78289;DHT22;67539;48.752;12.922;2023-04-01T06:37:23;8.70;98.20
78289;DHT22;67539;48.752;12.922;2023-04-01T06:40:06;8.70;98.10
78289;DHT22;67539;48.752;12.922;2023-04-01T06:42:48;8.70;98.20
78289;DHT22;67539;48.752;12.922;2023-04-01T06:45:49;8.70;98.50
78289;DHT22;67539;48.752;12.922;2023-04-01T06:48:53;8.70;98.60
78289;DHT22;67539;48.752;12.922;2023-04-01T06:51:50;8.70;98.80
78289;DHT22;67539;48.752;12.922;2023-04-01T06:54:44;8.70;98.40
78289;DHT22;67539;48.752;12.922;2023-04-01T06:57:36;8.70;98.30
78289;DHT22;67539;48.752;12.922;2023-04-01T07:00:13;8.80;98.60
78289;DHT22;67539;48.752;12.922;2023-04-01T07:02:47;8.80;98.40
78289;DHT22;67539;48.752;12.922;2023-04-01T07:05:22;8.80;98.20
78289;DHT22;67539;48.752;12.922;2023-04-01T07:07:53;8.90;98.50
78289;DHT22;67539;48.752;12.922;2023-04-01T07:10:33;8.90;98.30
78289;DHT22;67539;48.752;12.922;2023-04-01T07:13:25;9.00;98.50
78289;DHT22;67539;48.752;12.922;2023-04-01T07:16:05;9.00;98.20
78289;DHT22;67539;48.752;12.922;2023-04-01T07:18:42;9.10;98.50
78289;DHT22;67539;48.752;12.922;2023-04-01T07:21:22;9.10;98.50
78289;DHT22;67539;48.752;12.922;2023-04-01T07:23:56;9.10;98.10
78289;DHT22;67539;48.752;12.922;2023-04-01T07:26:44;9.20;97.50
78289;DHT22;67539;48.752;12.922;2023-04-01T07:29:17;9.20;98.00
78289;DHT22;67539;48.752;12.922;2023-04-01T07:32:11;9.20;97.60
78289;DHT22;67539;48.752;12.922;2023-04-01T07:34:48;9.30;97.40
78289;DHT22;67539;48.752;12.922;2023-04-01T07:37:23;9.30;97.00
78289;DHT22;67539;48.752;12.922;2023-04-01T07:40:01;9.30;97.90
78289;DHT22;67539;48.752;12.922;2023-04-01T07:42:44;9.40;97.70
78289;DHT22;67539;48.752;12.922;2023-04-01T07:45:23;9.50;96.90
78289;DHT22;67539;48.752;12.922;2023-04-01T07:48:08;9.60;97.30
78289;DHT22;67539;48.752;12.922;2023-04-01T07:50:46;9.60;96.90
78289;DHT22;67539;48.752;12.922;2023-04-01T07:53:23;9.60;96.80
78289;DHT22;67539;48.752;12.922;2023-04-01T07:56:01;9.60;96.30
78289;DHT22;67539;48.752;12.922;2023-04-01T07:58:43;9.70;96.70
78289;DHT22;67539;48.752;12.922;2023-04-01T08:01:39;9.80;96.40
78289;DHT22;67539;48.752;12.922;2023-04-01T08:04:28;9.80;96.80
78289;DHT22;67539;48.752;12.922;2023-04-01T08:07:06;9.90;96.40
78289;DHT22;67539;48.752;12.922;2023-04-01T08:09:46;9.90;96.00
78289;DHT22;67539;48.752;12.922;2023-04-01T08:12:45;10.00;96.40
78289;DHT22;67539;48.752;12.922;2023-04-01T08:15:45;10.00;95.50
78289;DHT22;67539;48.752;12.922;2023-04-01T08:18:35;10.00;95.10
78289;DHT22;67539;48.752;12.922;2023-04-01T08:21:09;10.10;95.60
78289;DHT22;67539;48.752;12.922;2023-04-01T08:23:43;10.10;94.90
78289;DHT22;67539;48.752;12.922;2023-04-01T08:26:18;10.20;95.10
78289;DHT22;67539;48.752;12.922;2023-04-01T08:28:53;10.20;94.30
78289;DHT22;67539;48.752;12.922;2023-04-01T08:31:30;10.30;93.80
78289;DHT22;67539;48.752;12.922;2023-04-01T08:34:02;10.30;94.30
78289;DHT22;67539;48.752;12.922;2023-04-01T08:36:35;10.40;93.40
78289;DHT22;67539;48.752;12.922;2023-04-01T08:39:19;10.40;93.80
78289;DHT22;67539;48.752;12.922;2023-04-01T08:42:09;10.50;93.50
78289;DHT22;67539;48.752;12.922;2023-04-01T08:45:10;10.50;93.20
78289;DHT22;67539;48.752;12.922;2023-04-01T08:48:22;10.60;93.80
78289;DHT22;67539;48.752;12.922;2023-04-01T08:51:16;10.60;93.30
78289;DHT22;67539;48.752;12.922;2023-04-01T08:54:05;10.70;94.10
78289;DHT22;67539;48.752;12.922;2023-04-01T08:56:42;10.80;93.00
78289;DHT22;67539;48.752;12.922;2023-04-01T08:59:32;10.80;92.30
78289;DHT22;67539;48.752;12.922;2023-04-01T09:02:46;10.90;92.60
78289;DHT22;67539;48.752;12.922;2023-04-01T09:05:47;10.90;92.80
78289;DHT22;67539;48.752;12.922;2023-04-01T09:08:32;11.00;92.10
78289;DHT22;67539;48.752;12.922;2023-04-01T09:11:12;11.00;91.30
78289;DHT22;67539;48.752;12.922;2023-04-01T09:14:23;11.00;91.60
78289;DHT22;67539;48.752;12.922;2023-04-01T09:17:29;11.00;91.60
78289;DHT22;67539;48.752;12.922;2023-04-01T09:20:17;11.00;92.00
78289;DHT22;67539;48.752;12.922;2023-04-01T09:23:04;11.00;91.20
78289;DHT22;67539;48.752;12.922;2023-04-01T09:25:48;11.00;91.90
78289;DHT22;67539;48.752;12.922;2023-04-01T09:28:20;11.00;91.00
78289;DHT22;67539;48.752;12.922;2023-04-01T09:31:13;11.10;91.00
78289;DHT22;67539;48.752;12.922;2023-04-01T09:37:18;11.30;90.60
78289;DHT22;67539;48.752;12.922;2023-04-01T09:40:02;11.40;91.30
78289;DHT22;67539;48.752;12.922;2023-04-01T09:42:43;11.40;90.00
78289;DHT22;67539;48.752;12.922;2023-04-01T09:48:19;11.30;90.20
78289;DHT22;67539;48.752;12.922;2023-04-01T09:50:55;11.30;90.50
78289;DHT22;67539;48.752;12.922;2023-04-01T09:56:36;11.20;89.60
78289;DHT22;67539;48.752;12.922;2023-04-01T10:02:59;11.20;88.10
78289;DHT22;67539;48.752;12.922;2023-04-01T10:08:41;11.40;88.90
78289;DHT22;67539;48.752;12.922;2023-04-01T10:14:59;11.80;86.30
78289;DHT22;67539;48.752;12.922;2023-04-01T10:20:46;11.90;84.80
78289;DHT22;67539;48.752;12.922;2023-04-01T10:23:45;11.70;85.40
78289;DHT22;67539;48.752;12.922;2023-04-01T10:26:55;11.80;85.90
78289;DHT22;67539;48.752;12.922;2023-04-01T10:30:13;11.80;87.90
78289;DHT22;67539;48.752;12.922;2023-04-01T10:33:12;11.80;84.30
78289;DHT22;67539;48.752;12.922;2023-04-01T10:42:59;11.90;86.40
78289;DHT22;67539;48.752;12.922;2023-04-01T10:49:20;11.90;86.70
78289;DHT22;67539;48.752;12.922;2023-04-01T10:55:37;11.80;85.40
78289;DHT22;67539;48.752;12.922;2023-04-01T10:59:11;11.80;84.40
78289;DHT22;67539;48.752;12.922;2023-04-01T11:11:53;11.70;85.30
78289;DHT22;67539;48.752;12.922;2023-04-01T11:18:41;11.70;85.10
78289;DHT22;67539;48.752;12.922;2023-04-01T11:24:24;11.80;85.90
78289;DHT22;67539;48.752;12.922;2023-04-01T11:27:29;11.80;84.00
78289;DHT22;67539;48.752;12.922;2023-04-01T11:30:19;11.80;87.70
78289;DHT22;67539;48.752;12.922;2023-04-01T11:32:54;11.80;85.20
78289;DHT22;67539;48.752;12.922;2023-04-01T11:35:57;11.80;84.10
78289;DHT22;67539;48.752;12.922;2023-04-01T11:38:42;11.70;84.00
78289;DHT22;67539;48.752;12.922;2023-04-01T11:41:46;11.70;84.50
78289;DHT22;67539;48.752;12.922;2023-04-01T11:44:42;11.60;85.80
78289;DHT22;67539;48.752;12.922;2023-04-01T11:47:50;11.60;84.60
78289;DHT22;67539;48.752;12.922;2023-04-01T11:50:30;11.60;85.30
78289;DHT22;67539;48.752;12.922;2023-04-01T11:53:13;11.60;85.80
78289;DHT22;67539;48.752;12.922;2023-04-01T11:55:53;11.70;86.20
78289;DHT22;67539;48.752;12.922;2023-04-01T11:58:37;11.70;85.90
78289;DHT22;67539;48.752;12.922;2023-04-01T12:01:22;11.70;87.30
78289;DHT22;67539;48.752;12.922;2023-04-01T12:04:06;11.70;85.40
78289;DHT22;67539;48.752;12.922;2023-04-01T12:06:44;11.70;86.30
78289;DHT22;67539;48.752;12.922;2023-04-01T12:09:23;11.70;87.90
78289;DHT22;67539;48.752;12.922;2023-04-01T12:12:03;11.70;87.70
78289;DHT22;67539;48.752;12.922;2023-04-01T12:14:44;11.70;90.10
78289;DHT22;67539;48.752;12.922;2023-04-01T12:17:29;11.80;89.00
78289;DHT22;67539;48.752;12.922;2023-04-01T12:20:09;11.80;90.10
78289;DHT22;67539;48.752;12.922;2023-04-01T12:22:50;11.90;88.10
78289;DHT22;67539;48.752;12.922;2023-04-01T12:25:46;11.80;88.70
78289;DHT22;67539;48.752;12.922;2023-04-01T12:28:24;11.90;90.00
78289;DHT22;67539;48.752;12.922;2023-04-01T12:31:06;11.90;88.00
78289;DHT22;67539;48.752;12.922;2023-04-01T12:33:51;11.90;89.00
78289;DHT22;67539;48.752;12.922;2023-04-01T12:36:46;11.90;89.90
78289;DHT22;67539;48.752;12.922;2023-04-01T12:42:23;11.80;88.50
78289;DHT22;67539;48.752;12.922;2023-04-01T12:45:14;11.60;90.20
78289;DHT22;67539;48.752;12.922;2023-04-01T12:48:06;11.30;91.80
78289;DHT22;67539;48.752;12.922;2023-04-01T12:50:57;10.80;95.20
78289;DHT22;67539;48.752;12.922;2023-04-01T12:53:41;9.90;99.90
78289;DHT22;67539;48.752;12.922;2023-04-01T12:56:18;9.40;99.90
78289;DHT22;67539;48.752;12.922;2023-04-01T12:59:05;9.20;99.90
78289;DHT22;67539;48.752;12.922;2023-04-01T13:01:54;9.20;99.90
78289;DHT22;67539;48.752;12.922;2023-04-01T13:04:56;9.20;99.90
78289;DHT22;67539;48.752;12.922;2023-04-01T13:10:38;9.30;99.90
78289;DHT22;67539;48.752;12.922;2023-04-01T13:13:27;9.50;99.90
78289;DHT22;67539;48.752;12.922;2023-04-01T13:16:03;9.70;99.90
78289;DHT22;67539;48.752;12.922;2023-04-01T13:18:40;9.70;99.90
78289;DHT22;67539;48.752;12.922;2023-04-01T13:21:19;9.80;99.90
78289;DHT22;67539;48.752;12.922;2023-04-01T13:23:55;9.80;99.90
78289;DHT22;67539;48.752;12.922;2023-04-01T13:26:29;9.70;99.90
78289;DHT22;67539;48.752;12.922;2023-04-01T13:29:06;9.60;99.90
78289;DHT22;67539;48.752;12.922;2023-04-01T13:31:49;9.50;99.90
78289;DHT22;67539;48.752;12.922;2023-04-01T13:34:30;9.50;99.90
78289;DHT22;67539;48.752;12.922;2023-04-01T13:37:13;9.60;99.90
78289;DHT22;67539;48.752;12.922;2023-04-01T13:39:57;9.70;99.90
78289;DHT22;67539;48.752;12.922;2023-04-01T13:42:35;9.90;99.90
78289;DHT22;67539;48.752;12.922;2023-04-01T13:45:13;9.90;99.90
78289;DHT22;67539;48.752;12.922;2023-04-01T13:51:06;9.90;99.90
78289;DHT22;67539;48.752;12.922;2023-04-01T13:54:00;9.80;99.90
78289;DHT22;67539;48.752;12.922;2023-04-01T13:56:41;9.70;99.90
78289;DHT22;67539;48.752;12.922;2023-04-01T13:59:26;9.70;99.90
78289;DHT22;67539;48.752;12.922;2023-04-01T14:02:07;9.50;99.90
78289;DHT22;67539;48.752;12.922;2023-04-01T14:05:00;9.50;99.90
78289;DHT22;67539;48.752;12.922;2023-04-01T14:07:48;9.50;99.90
78289;DHT22;67539;48.752;12.922;2023-04-01T14:10:22;9.60;99.90
78289;DHT22;67539;48.752;12.922;2023-04-01T14:12:58;9.60;99.90
78289;DHT22;67539;48.752;12.922;2023-04-01T14:15:43;9.50;99.90
78289;DHT22;67539;48.752;12.922;2023-04-01T14:21:35;9.50;99.90
78289;DHT22;67539;48.752;12.922;2023-04-01T14:24:31;9.40;99.90
78289;DHT22;67539;48.752;12.922;2023-04-01T14:30:35;9.40;99.90
78289;DHT22;67539;48.752;12.922;2023-04-01T14:33:16;9.40;99.90
78289;DHT22;67539;48.752;12.922;2023-04-01T14:35:50;9.30;99.90
78289;DHT22;67539;48.752;12.922;2023-04-01T14:38:28;9.30;99.90
78289;DHT22;67539;48.752;12.922;2023-04-01T14:41:13;9.30;99.90
78289;DHT22;67539;48.752;12.922;2023-04-01T14:46:56;9.20;99.90
78289;DHT22;67539;48.752;12.922;2023-04-01T14:49:34;9.20;99.90
78289;DHT22;67539;48.752;12.922;2023-04-01T14:52:11;9.20;99.90
78289;DHT22;67539;48.752;12.922;2023-04-01T14:54:44;9.10;99.90
78289;DHT22;67539;48.752;12.922;2023-04-01T14:57:16;9.20;99.90
78289;DHT22;67539;48.752;12.922;2023-04-01T14:59:53;9.30;99.90
78289;DHT22;67539;48.752;12.922;2023-04-01T15:02:36;9.30;99.90
78289;DHT22;67539;48.752;12.922;2023-04-01T15:05:16;9.30;99.90
78289;DHT22;67539;48.752;12.922;2023-04-01T15:08:15;9.30;99.90
78289;DHT22;67539;48.752;12.922;2023-04-01T15:14:13;9.30;99.90
78289;DHT22;67539;48.752;12.922;2023-04-01T15:16:53;9.30;99.90
78289;DHT22;67539;48.752;12.922;2023-04-01T15:19:31;9.30;99.90
78289;DHT22;67539;48.752;12.922;2023-04-01T15:22:29;9.30;99.90
78289;DHT22;67539;48.752;12.922;2023-04-01T15:25:24;9.20;99.90
78289;DHT22;67539;48.752;12.922;2023-04-01T15:28:05;9.30;99.90
78289;DHT22;67539;48.752;12.922;2023-04-01T15:30:47;9.30;99.90
78289;DHT22;67539;48.752;12.922;2023-04-01T15:33:24;9.30;99.90
78289;DHT22;67539;48.752;12.922;2023-04-01T15:36:02;9.30;99.90
78289;DHT22;67539;48.752;12.922;2023-04-01T15:38:36;9.30;99.90
78289;DHT22;67539;48.752;12.922;2023-04-01T15:41:14;9.20;99.90
78289;DHT22;67539;48.752;12.922;2023-04-01T15:43:46;9.20;99.90
78289;DHT22;67539;48.752;12.922;2023-04-01T15:49:19;9.30;99.90
78289;DHT22;67539;48.752;12.922;2023-04-01T15:52:05;9.30;99.90
78289;DHT22;67539;48.752;12.922;2023-04-01T15:55:00;9.30;99.90
78289;DHT22;67539;48.752;12.922;2023-04-01T15:57:40;9.20;99.90
78289;DHT22;67539;48.752;12.922;2023-04-01T16:00:27;9.20;99.90
78289;DHT22;67539;48.752;12.922;2023-04-01T16:03:17;9.20;99.90
78289;DHT22;67539;48.752;12.922;2023-04-01T16:06:08;9.20;99.90
78289;DHT22;67539;48.752;12.922;2023-04-01T16:08:55;9.20;99.90
78289;DHT22;67539;48.752;12.922;2023-04-01T16:11:30;9.10;99.90
78289;DHT22;67539;48.752;12.922;2023-04-01T16:14:16;9.10;99.90
78289;DHT22;67539;48.752;12.922;2023-04-01T16:16:54;9.10;99.90
78289;DHT22;67539;48.752;12.922;2023-04-01T16:19:39;9.20;99.90
78289;DHT22;67539;48.752;12.922;2023-04-01T16:22:14;9.20;99.90
78289;DHT22;67539;48.752;12.922;2023-04-01T16:24:48;9.20;99.90
78289;DHT22;67539;48.752;12.922;2023-04-01T16:27:25;9.20;99.90
78289;DHT22;67539;48.752;12.922;2023-04-01T16:29:59;9.30;99.90
78289;DHT22;67539;48.752;12.922;2023-04-01T16:32:36;9.30;99.90
78289;DHT22;67539;48.752;12.922;2023-04-01T16:35:21;9.30;99.90
78289;DHT22;67539;48.752;12.922;2023-04-01T16:37:53;9.30;99.90
78289;DHT22;67539;48.752;12.922;2023-04-01T16:40:32;9.30;99.90
78289;DHT22;67539;48.752;12.922;2023-04-01T16:43:09;9.30;99.90
78289;DHT22;67539;48.752;12.922;2023-04-01T16:45:42;9.30;99.90
78289;DHT22;67539;48.752;12.922;2023-04-01T16:48:14;9.30;99.90
78289;DHT22;67539;48.752;12.922;2023-04-01T16:50:51;9.30;99.90
78289;DHT22;67539;48.752;12.922;2023-04-01T16:53:30;9.40;99.90
78289;DHT22;67539;48.752;12.922;2023-04-01T16:56:10;9.40;99.90
78289;DHT22;67539;48.752;12.922;2023-04-01T16:58:42;9.30;99.90
78289;DHT22;67539;48.752;12.922;2023-04-01T17:01:14;9.40;99.90
78289;DHT22;67539;48.752;12.922;2023-04-01T17:03:46;9.30;99.90
78289;DHT22;67539;48.752;12.922;2023-04-01T17:06:25;9.30;99.90
78289;DHT22;67539;48.752;12.922;2023-04-01T17:09:07;9.30;99.90
78289;DHT22;67539;48.752;12.922;2023-04-01T17:11:42;9.30;99.90
78289;DHT22;67539;48.752;12.922;2023-04-01T17:14:20;9.30;99.90
78289;DHT22;67539;48.752;12.922;2023-04-01T17:17:00;9.30;99.90
78289;DHT22;67539;48.752;12.922;2023-04-01T17:19:56;9.20;99.90
78289;DHT22;67539;48.752;12.922;2023-04-01T17:22:32;9.20;99.90
78289;DHT22;67539;48.752;12.922;2023-04-01T17:25:19;9.20;99.90
78289;DHT22;67539;48.752;12.922;2023-04-01T17:27:52;9.10;99.90
78289;DHT22;67539;48.752;12.922;2023-04-01T17:30:30;9.10;99.90
78289;DHT22;67539;48.752;12.922;2023-04-01T17:33:19;9.10;99.90
78289;DHT22;67539;48.752;12.922;2023-04-01T17:35:58;9.10;99.90
78289;DHT22;67539;48.752;12.922;2023-04-01T17:38:46;9.10;99.90
78289;DHT22;67539;48.752;12.922;2023-04-01T17:41:27;9.10;99.90
78289;DHT22;67539;48.752;12.922;2023-04-01T17:44:03;9.10;99.90
78289;DHT22;67539;48.752;12.922;2023-04-01T17:46:50;9.10;99.90
78289;DHT22;67539;48.752;12.922;2023-04-01T17:49:28;9.10;99.90
78289;DHT22;67539;48.752;12.922;2023-04-01T17:52:06;9.10;99.90
78289;DHT22;67539;48.752;12.922;2023-04-01T17:54:43;9.10;99.90
78289;DHT22;67539;48.752;12.922;2023-04-01T17:57:29;9.10;99.90
78289;DHT22;67539;48.752;12.922;2023-04-01T18:00:02;9.10;99.90
78289;DHT22;67539;48.752;12.922;2023-04-01T18:02:49;9.10;99.90